Time;durP1;ratioP1;P1;durP2;ratioP2;P2;SDS_P1;SDS_P2;PMS_P1;PMS_P2;Temp;Humidity;BMP_temperature;BMP_pressure;BME280_temperature;BME280_humidity;BME280_pressure;Samples;Min_cycle;Max_cycle;Signal;HPM_P1;HPM_P2
2022/12/06 00:00:56;;;;;;;297.27;145.65;;;;;;;14.97;77.39;99172.44;4978496;28;20494;-64
2022/12/06 00:03:45;;;;;;;295.05;144.68;;;;;;;14.85;77.61;99168.91;4979170;28;20050;-64
2022/12/06 00:06:30;;;;;;;299.88;145.65;;;;;;;14.83;78.23;99169.13;4977726;28;20050;-63
2022/12/06 00:09:28;;;;;;;296.83;141.98;;;;;;;14.83;78.27;99168.31;4975894;28;20054;-64
2022/12/06 00:12:10;;;;;;;277.73;142.27;;;;;;;14.77;78.36;99169.22;4980583;28;20054;-63
2022/12/06 00:14:59;;;;;;;287.15;140.05;;;;;;;14.82;78.07;99174.75;4959966;28;20157;-64
2022/12/06 00:17:41;;;;;;;280.17;138.00;;;;;;;14.83;78.24;99176.41;4978611;28;20149;-64
2022/12/06 00:20:30;;;;;;;269.45;134.40;;;;;;;14.83;78.56;99171.00;4979457;28;20633;-64
2022/12/06 00:23:18;;;;;;;276.17;134.15;;;;;;;14.80;78.98;99174.16;4981375;28;20050;-63
2022/12/06 00:26:13;;;;;;;259.13;131.77;;;;;;;14.78;78.97;99181.69;4977509;28;20074;-64
2022/12/06 00:29:03;;;;;;;245.48;126.18;;;;;;;14.74;78.82;99181.31;4960549;28;20073;-65
2022/12/06 00:31:45;;;;;;;257.63;134.93;;;;;;;14.78;78.41;99181.69;4977159;28;20596;-64
2022/12/06 00:34:34;;;;;;;247.05;129.13;;;;;;;14.65;78.36;99190.78;4969517;28;20058;-64
2022/12/06 00:37:10;;;;;;;240.65;125.15;;;;;;;14.75;78.30;99188.38;4977721;28;20085;-64
2022/12/06 00:39:58;;;;;;;241.52;127.63;;;;;;;14.80;78.03;99193.88;4983080;28;20046;-64
2022/12/06 00:42:47;;;;;;;226.35;119.35;;;;;;;14.78;77.85;99195.19;4971278;28;20141;-64
2022/12/06 00:45:42;;;;;;;231.63;116.50;;;;;;;14.68;78.02;99199.25;4939825;28;20095;-63
2022/12/06 00:48:18;;;;;;;216.95;116.68;;;;;;;14.63;78.60;99201.81;4968883;28;20051;-64
2022/12/06 00:51:07;;;;;;;229.53;116.23;;;;;;;14.57;78.86;99200.03;4969402;28;20054;-64
2022/12/06 00:53:57;;;;;;;213.77;111.53;;;;;;;14.61;79.14;99203.09;4957986;28;20294;-66
2022/12/06 00:56:54;;;;;;;216.43;112.45;;;;;;;14.61;78.67;99206.63;4973201;28;20094;-66
2022/12/06 00:59:29;;;;;;;215.10;112.68;;;;;;;14.50;78.41;99212.75;4957047;28;20050;-65
2022/12/06 01:02:24;;;;;;;212.73;113.40;;;;;;;14.53;78.18;99212.31;4956881;28;20047;-65
2022/12/06 01:05:00;;;;;;;212.40;110.57;;;;;;;14.39;78.25;99214.38;4965458;28;20704;-65
2022/12/06 01:07:48;;;;;;;220.77;117.43;;;;;;;14.26;78.05;99220.75;4962712;28;20513;-66
2022/12/06 01:10:37;;;;;;;212.18;112.55;;;;;;;14.21;78.40;99217.06;4951472;28;20138;-65
2022/12/06 01:13:19;;;;;;;220.00;116.78;;;;;;;14.23;78.05;99223.06;4968017;28;20059;-65
2022/12/06 01:16:18;;;;;;;215.07;111.75;;;;;;;14.21;78.45;99225.16;4965628;28;20050;-65
2022/12/06 01:19:18;;;;;;;226.05;114.97;;;;;;;14.31;78.60;99228.16;4938572;28;20407;-64
2022/12/06 01:21:54;;;;;;;218.75;115.32;;;;;;;14.45;77.59;99231.53;4968184;28;20050;-65
2022/12/06 01:24:49;;;;;;;210.88;114.97;;;;;;;14.52;76.89;99231.44;4951966;28;20047;-64
2022/12/06 01:27:25;;;;;;;219.13;115.68;;;;;;;14.45;77.55;99236.94;4963059;28;20050;-64
2022/12/06 01:30:14;;;;;;;227.32;118.82;;;;;;;14.39;77.31;99238.66;4964297;28;20150;-65
2022/12/06 01:33:03;;;;;;;216.15;114.72;;;;;;;14.30;77.89;99240.84;4968059;28;20113;-65
2022/12/06 01:35:52;;;;;;;213.55;112.45;;;;;;;14.30;77.92;99242.72;4970605;28;20086;-67
2022/12/06 01:38:41;;;;;;;213.95;113.50;;;;;;;14.34;78.46;99248.50;4981050;28;20046;-65
2022/12/06 01:41:25;;;;;;;214.63;109.25;;;;;;;14.31;78.66;99252.44;4986489;28;20145;-66
2022/12/06 01:44:56;;;;;;;209.23;112.50;;;;;;;14.37;78.53;99254.28;4980225;28;20053;-65
2022/12/06 01:47:45;;;;;;;205.20;109.63;;;;;;;14.38;78.79;99263.19;4961938;28;20534;-66
2022/12/06 01:50:39;;;;;;;204.48;111.35;;;;;;;14.43;78.50;99260.66;4969526;28;20046;-64
2022/12/06 01:53:23;;;;;;;213.18;112.18;;;;;;;14.44;78.66;99259.56;4969361;28;20173;-65
2022/12/06 01:56:13;;;;;;;212.40;111.30;;;;;;;14.43;78.45;99255.25;4967108;28;20450;-66
2022/12/06 01:58:58;;;;;;;216.18;111.68;;;;;;;14.53;78.47;99255.53;4967980;28;20050;-67
2022/12/06 02:01:47;;;;;;;204.05;109.15;;;;;;;14.63;77.95;99255.84;4972212;28;20064;-64
2022/12/06 02:04:36;;;;;;;200.52;108.60;;;;;;;14.61;78.43;99260.66;4951756;28;20055;-66
2022/12/06 02:07:27;;;;;;;201.73;109.05;;;;;;;14.65;78.67;99263.72;4953143;28;20047;-67
2022/12/06 02:10:10;;;;;;;202.65;107.30;;;;;;;14.75;78.18;99271.28;4984494;28;20482;-67
2022/12/06 02:13:02;;;;;;;192.38;105.88;;;;;;;14.91;77.31;99261.75;4968702;28;20778;-67
2022/12/06 02:16:14;;;;;;;208.98;107.63;;;;;;;15.03;76.36;99270.72;4975442;28;20118;-65
2022/12/06 02:19:38;;;;;;;192.57;104.13;;;;;;;15.05;77.13;99274.00;4967355;28;20129;-65
2022/12/06 02:22:48;;;;;;;203.30;105.70;;;;;;;15.15;77.14;99285.09;4964973;28;20810;-67
2022/12/06 02:26:16;;;;;;;197.25;107.05;;;;;;;15.26;76.64;99287.00;4962588;28;20065;-67
2022/12/06 02:29:32;;;;;;;207.45;107.00;;;;;;;15.33;76.34;99286.91;4947650;28;20051;-66
2022/12/06 02:32:40;;;;;;;194.25;104.82;;;;;;;15.32;76.69;99287.97;4951374;28;20053;-67
2022/12/06 02:35:30;;;;;;;216.98;111.30;;;;;;;15.40;76.95;99298.47;4957853;28;20505;-66
2022/12/06 02:38:22;;;;;;;211.60;112.15;;;;;;;15.51;76.20;99301.41;4948148;28;20082;-66
2022/12/06 02:41:14;;;;;;;213.82;116.20;;;;;;;15.72;76.07;99300.03;4954524;28;20058;-65
2022/12/06 02:44:11;;;;;;;228.15;117.07;;;;;;;15.72;75.10;99295.44;4932071;29;20162;-68
2022/12/06 02:47:03;;;;;;;230.07;118.95;;;;;;;15.77;75.01;99302.91;4955243;28;20054;-66
2022/12/06 02:49:53;;;;;;;229.35;122.80;;;;;;;15.79;74.92;99307.03;4950672;28;20146;-64
2022/12/06 02:52:45;;;;;;;249.60;126.72;;;;;;;15.97;74.73;99303.41;4958717;28;20058;-67
2022/12/06 02:55:29;;;;;;;241.77;130.95;;;;;;;15.97;73.65;99305.28;4953459;28;20090;-65
2022/12/06 02:58:18;;;;;;;241.07;128.00;;;;;;;16.05;74.77;99304.94;4955945;28;20054;-67
2022/12/06 03:01:10;;;;;;;253.43;127.90;;;;;;;16.11;75.02;99303.16;4952372;28;20695;-63
2022/12/06 03:04:05;;;;;;;248.40;128.02;;;;;;;16.13;75.13;99311.91;4948057;28;20050;-65
2022/12/06 03:07:16;;;;;;;241.23;127.60;;;;;;;16.16;75.80;99311.41;4952154;28;20062;-66
2022/12/06 03:10:40;;;;;;;249.80;127.22;;;;;;;16.29;75.55;99313.06;4953144;28;20142;-66
2022/12/06 03:13:53;;;;;;;242.07;124.63;;;;;;;16.55;74.11;99322.56;4950450;28;20137;-64
2022/12/06 03:16:40;;;;;;;241.40;125.93;;;;;;;16.76;72.88;99321.13;4947430;29;20059;-65
2022/12/06 03:19:31;;;;;;;246.35;125.70;;;;;;;16.97;72.43;99319.69;4946690;29;20062;-66
2022/12/06 03:22:20;;;;;;;258.65;135.15;;;;;;;17.17;71.83;99316.53;4948188;28;20479;-66
2022/12/06 03:25:16;;;;;;;254.10;139.57;;;;;;;17.47;70.87;99321.69;4981773;28;20603;-66
2022/12/06 03:28:07;;;;;;;265.20;141.93;;;;;;;17.58;71.10;99328.13;4985170;28;20054;-65
2022/12/06 03:30:59;;;;;;;270.23;143.65;;;;;;;17.90;69.58;99335.72;4964104;28;20134;-64
2022/12/06 03:33:50;;;;;;;254.07;141.90;;;;;;;18.29;68.23;99333.09;4974824;28;20046;-66
2022/12/06 03:36:40;;;;;;;257.48;143.50;;;;;;;18.57;67.49;99341.09;4966159;28;20054;-67
2022/12/06 03:39:46;;;;;;;252.98;141.73;;;;;;;18.87;65.95;99347.22;4965824;28;20472;-63
2022/12/06 03:42:37;;;;;;;241.00;133.60;;;;;;;18.93;64.31;99346.19;4969583;28;20648;-65
2022/12/06 03:45:22;;;;;;;250.98;136.05;;;;;;;19.36;62.88;99353.50;4970367;28;20058;-66
2022/12/06 03:48:24;;;;;;;231.38;132.02;;;;;;;19.38;62.03;99350.53;4966409;28;20061;-65
2022/12/06 03:51:15;;;;;;;222.27;129.07;;;;;;;19.89;62.64;99361.94;4966925;28;20058;-64
2022/12/06 03:54:07;;;;;;;222.60;126.72;;;;;;;20.14;60.43;99361.31;4966068;28;20721;-66
2022/12/06 03:56:49;;;;;;;221.77;129.10;;;;;;;20.32;59.82;99375.63;4966045;28;20047;-67
2022/12/06 03:59:38;;;;;;;211.63;121.10;;;;;;;20.76;56.90;99380.81;4966901;28;20054;-65
2022/12/06 04:02:20;;;;;;;215.63;121.45;;;;;;;21.02;57.19;99378.25;4966072;28;20054;-66
2022/12/06 04:05:09;;;;;;;201.52;119.68;;;;;;;21.19;59.28;99386.19;4968413;28;20065;-66
2022/12/06 04:07:58;;;;;;;206.90;117.82;;;;;;;21.44;55.86;99383.59;4970027;28;20058;-66
2022/12/06 04:10:47;;;;;;;192.75;114.88;;;;;;;21.62;54.14;99381.44;4988780;28;20058;-64
2022/12/06 04:13:29;;;;;;;204.27;116.70;;;;;;;21.73;56.14;99383.09;4961223;28;20058;-65
2022/12/06 04:19:20;;;;;;;202.38;113.68;;;;;;;21.69;54.83;99391.00;4979133;28;20078;-65
2022/12/06 04:25:16;;;;;;;189.70;108.72;;;;;;;21.99;55.41;99389.41;4955450;28;20051;-64
2022/12/06 04:40:27;;;;;;;149.27;92.53;;;;;;;21.88;53.46;99406.91;4966878;28;20062;-66
2022/12/06 04:46:19;;;;;;;172.63;99.22;;;;;;;22.00;53.55;99410.16;4980233;28;20081;-65
2022/12/06 04:49:08;;;;;;;177.60;100.50;;;;;;;22.05;52.65;99401.16;4980237;28;20046;-66
2022/12/06 04:51:51;;;;;;;154.98;91.22;;;;;;;22.04;51.89;99405.78;4963760;28;20057;-66
2022/12/06 04:54:47;;;;;;;157.02;89.60;;;;;;;22.08;52.61;99412.34;4950801;28;20113;-67
2022/12/06 04:57:22;;;;;;;154.23;87.70;;;;;;;21.88;51.94;99395.97;4948052;29;20430;-66
2022/12/06 05:00:18;;;;;;;161.98;81.30;;;;;;;21.87;52.07;99408.78;4947925;29;20142;-67
2022/12/06 05:02:54;;;;;;;157.07;88.35;;;;;;;22.01;53.39;99406.34;4964577;28;20315;-63
2022/12/06 05:05:43;;;;;;;155.65;83.32;;;;;;;21.86;52.84;99398.16;4987290;28;20146;-65
2022/12/06 05:08:25;;;;;;;146.27;88.40;;;;;;;21.83;53.05;99399.50;4974228;28;20042;-67
2022/12/06 05:11:14;;;;;;;151.85;79.18;;;;;;;21.58;52.62;99403.00;4968939;28;20120;-66
2022/12/06 05:13:56;;;;;;;130.50;75.43;;;;;;;21.99;53.17;99397.63;4967074;28;20061;-65
2022/12/06 05:16:45;;;;;;;124.63;76.85;;;;;;;21.72;51.04;99397.03;4949491;28;20050;-65
2022/12/06 05:19:27;;;;;;;118.78;74.13;;;;;;;21.84;52.02;99389.38;4954892;28;20048;-65
2022/12/06 05:22:22;;;;;;;131.52;73.65;;;;;;;21.79;53.36;99387.47;4969570;28;20509;-65
2022/12/06 05:24:58;;;;;;;134.35;72.22;;;;;;;21.93;51.91;99389.66;4970172;28;20057;-65
2022/12/06 05:27:46;;;;;;;124.00;72.28;;;;;;;22.20;51.73;99397.59;4963461;28;20161;-66
2022/12/06 05:30:35;;;;;;;138.88;74.07;;;;;;;22.60;51.73;99390.47;4973380;28;20627;-68
2022/12/06 05:33:24;;;;;;;127.25;72.40;;;;;;;22.45;50.75;99388.56;4985775;28;20146;-67
2022/12/06 05:36:19;;;;;;;119.00;68.70;;;;;;;22.25;50.81;99381.22;4976234;28;20046;-66
2022/12/06 05:39:01;;;;;;;112.32;67.65;;;;;;;21.88;49.92;99383.13;4967118;28;20106;-65
2022/12/06 05:41:50;;;;;;;113.07;67.45;;;;;;;22.03;50.02;99382.31;4966612;28;20645;-66
2022/12/06 05:44:32;;;;;;;125.63;68.25;;;;;;;22.03;51.17;99376.84;4966912;28;20109;-66
2022/12/06 05:47:21;;;;;;;119.72;66.78;;;;;;;22.27;50.18;99376.31;4969755;28;20054;-67
2022/12/06 05:50:04;;;;;;;115.32;68.20;;;;;;;22.72;49.47;99363.66;4951200;28;20047;-67
2022/12/06 05:52:54;;;;;;;110.05;66.13;;;;;;;23.12;48.41;99361.88;4949462;28;20046;-68
2022/12/06 05:55:43;;;;;;;119.47;67.35;;;;;;;23.06;47.82;99360.25;4971109;28;20066;-67
2022/12/06 05:58:25;;;;;;;116.97;65.18;;;;;;;23.13;47.71;99362.69;4985792;28;20470;-68
2022/12/06 06:01:14;;;;;;;118.07;63.95;;;;;;;23.09;47.63;99364.34;4984780;28;20511;-66
2022/12/06 06:03:56;;;;;;;116.55;64.60;;;;;;;23.54;48.26;99360.56;4967353;28;20539;-67
2022/12/06 06:06:45;;;;;;;121.03;67.10;;;;;;;23.71;47.93;99356.59;4971603;28;20066;-67
2022/12/06 06:09:34;;;;;;;119.30;66.45;;;;;;;23.56;46.60;99352.88;4946817;29;20086;-65
2022/12/06 06:12:29;;;;;;;110.20;68.78;;;;;;;23.67;46.83;99341.81;4946099;29;20162;-66
2022/12/06 06:15:06;;;;;;;108.63;62.78;;;;;;;23.81;46.09;99340.13;4973272;28;20054;-65
2022/12/06 06:17:55;;;;;;;112.93;61.13;;;;;;;23.77;44.42;99330.78;4985252;28;20104;-65
2022/12/06 06:20:37;;;;;;;108.55;61.60;;;;;;;23.68;45.13;99332.50;4984170;28;20069;-64
2022/12/06 06:23:27;;;;;;;102.88;62.67;;;;;;;23.46;46.18;99320.03;4978609;28;20149;-66
2022/12/06 06:26:22;;;;;;;119.88;66.47;;;;;;;23.52;45.73;99315.34;4944458;29;20126;-66
2022/12/06 06:29:17;;;;;;;105.93;61.90;;;;;;;24.10;45.64;99311.91;4925958;29;20055;-64
2022/12/06 06:31:52;;;;;;;109.65;62.22;;;;;;;24.27;46.25;99315.03;4926786;29;20079;-66
2022/12/06 06:34:41;;;;;;;107.80;62.97;;;;;;;24.13;45.52;99311.31;4941210;29;20074;-65
2022/12/06 06:37:23;;;;;;;102.78;62.63;;;;;;;24.37;45.66;99303.94;4945951;29;20142;-67
2022/12/06 06:40:12;;;;;;;114.63;65.00;;;;;;;24.40;44.40;99299.78;4942036;29;20114;-65
2022/12/06 06:43:16;;;;;;;105.35;59.40;;;;;;;24.39;44.08;99289.94;4940998;29;20082;-65
2022/12/06 06:46:01;;;;;;;100.88;61.38;;;;;;;24.58;43.21;99284.53;4945725;29;20055;-65
2022/12/06 06:48:50;;;;;;;113.95;62.95;;;;;;;24.16;43.40;99286.06;4946135;29;20047;-66
2022/12/06 06:51:33;;;;;;;104.07;59.28;;;;;;;24.04;43.24;99270.81;4926569;29;20047;-65
2022/12/06 06:54:22;;;;;;;108.45;61.22;;;;;;;24.17;43.22;99277.56;4930507;29;20106;-66
2022/12/06 06:57:04;;;;;;;107.72;65.32;;;;;;;24.52;45.96;99272.00;4946269;29;20055;-64
2022/12/06 06:59:58;;;;;;;101.82;62.85;;;;;;;24.28;45.66;99259.03;4945759;29;20479;-64
2022/12/06 07:02:42;;;;;;;106.90;63.47;;;;;;;24.52;45.02;99263.75;4945859;28;20442;-66
2022/12/06 07:05:31;;;;;;;99.03;60.10;;;;;;;24.46;43.48;99251.16;4942937;29;20109;-66
2022/12/06 07:08:13;;;;;;;106.40;59.00;;;;;;;24.06;44.19;99254.09;4929721;29;20055;-64
2022/12/06 07:11:02;;;;;;;98.35;59.60;;;;;;;24.39;44.98;99249.59;4938263;28;20066;-65
2022/12/06 07:13:44;;;;;;;86.00;53.70;;;;;;;24.37;42.23;99240.84;4927457;29;20822;-66
2022/12/06 07:16:34;;;;;;;93.53;57.13;;;;;;;24.48;44.21;99241.53;4946388;28;20146;-65
2022/12/06 07:19:16;;;;;;;102.70;59.33;;;;;;;24.70;45.49;99238.25;4951165;28;20054;-64
2022/12/06 07:22:05;;;;;;;88.30;52.88;;;;;;;24.59;44.40;99234.84;4933096;28;20117;-64
2022/12/06 07:24:47;;;;;;;100.55;55.35;;;;;;;24.64;44.44;99230.41;4962555;28;20526;-66
2022/12/06 07:27:39;;;;;;;99.22;56.47;;;;;;;24.72;44.74;99225.06;4963176;28;20058;-65
2022/12/06 07:30:21;;;;;;;93.47;58.08;;;;;;;24.65;44.62;99219.13;4964679;28;20527;-64
2022/12/06 07:33:10;;;;;;;100.03;56.40;;;;;;;24.71;44.97;99215.22;4965370;28;20050;-67
2022/12/06 07:35:52;;;;;;;89.88;53.17;;;;;;;24.86;43.79;99207.84;4960936;28;20121;-64
2022/12/06 07:38:55;;;;;;;88.82;51.50;;;;;;;24.84;44.04;99199.09;4972859;28;20046;-66
2022/12/06 07:45:00;;;;;;;85.50;47.65;;;;;;;24.66;42.72;99184.28;4979252;28;20046;-67
2022/12/06 07:47:55;;;;;;;81.45;45.63;;;;;;;24.92;43.18;99188.28;4949348;28;20066;-68
2022/12/06 07:50:32;;;;;;;93.03;47.28;;;;;;;24.80;43.20;99188.72;4985538;28;20753;-66
2022/12/06 07:53:20;;;;;;;82.05;43.63;;;;;;;24.86;42.46;99178.50;4958118;28;20517;-65
2022/12/06 07:56:02;;;;;;;76.15;43.45;;;;;;;24.83;42.30;99181.81;4969817;28;20481;-63
2022/12/06 07:58:57;;;;;;;83.13;46.42;;;;;;;24.52;42.94;99175.97;4968110;28;20092;-68
2022/12/06 08:01:33;;;;;;;74.15;42.15;;;;;;;24.69;42.19;99162.53;4987784;28;20050;-67
2022/12/06 08:04:22;;;;;;;70.13;41.15;;;;;;;24.90;42.12;99159.50;4976321;28;20051;-66
2022/12/06 08:07:04;;;;;;;77.93;42.30;;;;;;;24.83;42.17;99154.38;4963136;28;20478;-66
2022/12/06 08:10:00;;;;;;;75.65;43.72;;;;;;;24.91;42.84;99156.44;4962111;28;20124;-67
2022/12/06 08:12:37;;;;;;;71.40;42.83;;;;;;;24.87;42.96;99149.09;4958402;28;20062;-65
2022/12/06 08:15:32;;;;;;;70.97;40.65;;;;;;;25.05;43.40;99137.28;4966275;28;20063;-66
2022/12/06 08:18:08;;;;;;;59.42;37.08;;;;;;;24.96;40.50;99133.59;4961574;28;20042;-65
2022/12/06 08:20:58;;;;;;;64.30;38.47;;;;;;;25.09;41.32;99129.25;4952615;28;20059;-65
2022/12/06 08:23:41;;;;;;;74.00;39.97;;;;;;;24.99;41.22;99131.06;4949565;29;20130;-66
2022/12/06 08:26:36;;;;;;;71.82;42.38;;;;;;;25.09;41.63;99118.25;4959943;28;20058;-66
2022/12/06 08:29:12;;;;;;;65.72;39.67;;;;;;;25.21;42.06;99113.94;4964508;28;20066;-67
2022/12/06 08:32:26;;;;;;;67.87;39.77;;;;;;;25.29;41.85;99115.19;4955524;28;20140;-66
2022/12/06 08:35:02;;;;;;;68.35;40.80;;;;;;;25.13;41.43;99105.59;4962431;28;20348;-66
2022/12/06 08:37:57;;;;;;;65.90;42.08;;;;;;;24.95;41.57;99104.50;4942191;28;20470;-67
2022/12/06 08:40:32;;;;;;;67.60;39.10;;;;;;;25.10;42.02;99098.75;4971366;28;20060;-68
2022/12/06 08:43:21;;;;;;;70.78;41.03;;;;;;;25.05;41.94;99107.09;4969845;28;20054;-66
2022/12/06 08:46:04;;;;;;;70.28;38.60;;;;;;;24.94;41.10;99100.94;4967797;28;20058;-66
2022/12/06 08:48:53;;;;;;;66.95;38.25;;;;;;;24.89;41.13;99098.25;4968074;28;20125;-66
2022/12/06 08:51:42;;;;;;;60.20;38.38;;;;;;;24.79;41.75;99099.25;4959852;28;20087;-66
2022/12/06 08:54:33;;;;;;;65.00;38.08;;;;;;;25.01;41.50;99095.03;4959382;28;20047;-64
2022/12/06 08:57:15;;;;;;;61.80;37.05;;;;;;;24.95;41.49;99088.00;4955970;28;20137;-68
2022/12/06 09:00:09;;;;;;;67.57;37.25;;;;;;;25.09;40.77;99085.31;4960616;28;20039;-65
2022/12/06 09:02:51;;;;;;;59.03;36.00;;;;;;;25.25;39.89;99086.72;4963688;28;20078;-66
2022/12/06 09:05:46;;;;;;;59.83;35.80;;;;;;;25.31;40.02;99082.75;4961569;28;20054;-67
2022/12/06 09:08:22;;;;;;;60.17;36.55;;;;;;;25.34;40.35;99086.84;4962451;28;20063;-65
2022/12/06 09:11:18;;;;;;;64.63;38.47;;;;;;;25.35;40.64;99088.44;4960773;28;20046;-65
2022/12/06 09:13:54;;;;;;;65.95;39.05;;;;;;;25.30;40.55;99081.13;4964415;28;20546;-65
2022/12/06 09:16:44;;;;;;;59.40;35.95;;;;;;;25.28;40.95;99083.38;4963621;28;20130;-66
2022/12/06 09:19:26;;;;;;;56.60;35.25;;;;;;;25.13;41.26;99078.13;4960596;28;20043;-65
2022/12/06 09:22:15;;;;;;;61.55;34.80;;;;;;;25.14;41.15;99077.78;4962013;28;20050;-67
2022/12/06 09:25:11;;;;;;;60.35;36.58;;;;;;;25.05;42.28;99076.88;4966246;28;20330;-66
2022/12/06 09:27:47;;;;;;;55.65;35.00;;;;;;;25.02;41.77;99066.47;4965126;28;20075;-68
2022/12/06 09:30:36;;;;;;;61.03;32.38;;;;;;;24.96;41.08;99068.50;4951405;28;20074;-68
2022/12/06 09:33:18;;;;;;;52.70;32.10;;;;;;;24.98;40.56;99065.47;4963602;28;20566;-65
2022/12/06 09:36:15;;;;;;;54.05;32.45;;;;;;;25.08;40.42;99069.97;4963101;28;20544;-66
2022/12/06 09:39:13;;;;;;;53.67;32.80;;;;;;;24.71;41.98;99064.25;4967251;28;20049;-67
2022/12/06 09:42:07;;;;;;;53.88;32.10;;;;;;;24.99;41.31;99065.16;4961837;28;20061;-66
2022/12/06 09:45:30;;;;;;;59.25;34.42;;;;;;;24.68;42.20;99062.09;4964974;28;20477;-67
2022/12/06 09:48:27;;;;;;;60.10;33.60;;;;;;;24.88;42.71;99058.22;4965678;28;20047;-68
2022/12/06 09:51:48;;;;;;;56.00;33.80;;;;;;;24.85;43.15;99063.50;4952663;28;20166;-65
2022/12/06 09:54:42;;;;;;;54.70;33.47;;;;;;;24.51;42.31;99065.38;4962091;28;20066;-65
2022/12/06 09:58:02;;;;;;;53.22;31.67;;;;;;;24.52;42.31;99061.53;4945862;28;20055;-69
2022/12/06 10:01:21;;;;;;;50.90;31.50;;;;;;;24.51;41.71;99054.41;4946580;28;20050;-66
2022/12/06 10:04:19;;;;;;;57.78;33.22;;;;;;;24.67;42.35;99056.91;4963745;28;20142;-65
2022/12/06 10:07:38;;;;;;;54.60;31.42;;;;;;;24.48;42.83;99059.66;4964813;28;20110;-65
2022/12/06 10:10:57;;;;;;;55.75;31.60;;;;;;;24.40;41.95;99052.88;4967722;28;20494;-66
2022/12/06 10:14:03;;;;;;;50.65;30.67;;;;;;;24.50;41.55;99051.94;4964080;28;20141;-66
2022/12/06 10:17:17;;;;;;;53.58;31.00;;;;;;;24.48;42.23;99049.50;4962596;28;20059;-66
2022/12/06 10:20:34;;;;;;;53.30;29.45;;;;;;;24.47;42.72;99044.28;4949213;28;20110;-67
2022/12/06 10:23:27;;;;;;;55.90;29.90;;;;;;;24.37;43.33;99042.53;4958949;28;20054;-67
2022/12/06 10:26:57;;;;;;;53.58;31.67;;;;;;;24.48;43.12;99043.19;4967019;28;20052;-64
2022/12/06 10:30:00;;;;;;;53.55;32.45;;;;;;;24.11;42.82;99042.88;4963627;28;20601;-67
2022/12/06 10:33:04;;;;;;;53.17;31.02;;;;;;;24.12;43.42;99032.75;4958515;28;20050;-65
2022/12/06 10:36:00;;;;;;;64.25;32.28;;;;;;;24.08;44.26;99046.22;4966365;28;20465;-67
2022/12/06 10:38:58;;;;;;;53.85;31.60;;;;;;;24.10;43.78;99040.44;4962626;28;20625;-66
2022/12/06 10:42:17;;;;;;;56.58;31.33;;;;;;;24.10;43.92;99034.97;4953720;28;20074;-65
2022/12/06 10:48:42;;;;;;;56.40;30.73;;;;;;;23.91;44.38;99035.75;4961680;28;20758;-65
2022/12/06 10:51:37;;;;;;;54.35;32.28;;;;;;;23.78;44.93;99034.53;4927968;28;20569;-66
2022/12/06 10:55:01;;;;;;;53.70;31.58;;;;;;;23.79;43.65;99038.91;4959180;28;20162;-66
2022/12/06 10:58:05;;;;;;;53.22;30.25;;;;;;;23.58;42.94;99038.31;4902880;29;20052;-62
2022/12/06 11:01:01;;;;;;;52.42;30.45;;;;;;;23.53;44.59;99040.31;4953325;28;20058;-63
2022/12/06 11:04:19;;;;;;;54.58;29.67;;;;;;;23.55;45.45;99044.38;4955730;28;20055;-63
2022/12/06 11:07:11;;;;;;;55.20;30.25;;;;;;;23.47;45.16;99044.22;4955960;28;20035;-63
2022/12/06 11:10:07;;;;;;;57.65;31.38;;;;;;;23.36;46.34;99041.56;4956481;28;20055;-62
2022/12/06 11:12:43;;;;;;;54.25;30.73;;;;;;;23.28;46.04;99044.94;4955011;28;20078;-62
2022/12/06 11:15:44;;;;;;;60.28;30.98;;;;;;;23.21;46.62;99042.53;4961161;28;20106;-64
2022/12/06 11:18:24;;;;;;;68.82;32.33;;;;;;;23.24;46.53;99044.72;4958276;28;20054;-62
2022/12/06 11:21:33;;;;;;;56.22;31.70;;;;;;;23.08;47.60;99045.94;4963733;28;20441;-65
2022/12/06 11:24:17;;;;;;;63.13;32.28;;;;;;;22.90;50.76;99044.72;4964325;28;20046;-63
2022/12/06 11:27:41;;;;;;;53.55;32.30;;;;;;;22.68;50.85;99048.75;4966090;28;20122;-64
2022/12/06 11:30:18;;;;;;;57.67;31.55;;;;;;;22.52;51.37;99040.94;4963516;28;20051;-65
2022/12/06 11:33:09;;;;;;;58.67;32.00;;;;;;;22.39;51.86;99040.47;4961513;28;20047;-61
2022/12/06 11:35:52;;;;;;;68.10;34.00;;;;;;;22.28;53.87;99044.38;4962261;28;20054;-64
2022/12/06 11:38:43;;;;;;;59.95;33.13;;;;;;;22.15;53.78;99040.31;4968449;28;20114;-63
2022/12/06 11:41:34;;;;;;;71.70;34.25;;;;;;;22.04;54.02;99041.47;4982389;28;20062;-62
2022/12/06 11:44:27;;;;;;;62.50;34.45;;;;;;;21.86;55.64;99034.75;4988002;28;20046;-62
2022/12/06 11:47:11;;;;;;;67.05;36.03;;;;;;;21.76;55.59;99042.97;4948612;29;20561;-62
2022/12/06 11:50:01;;;;;;;61.47;35.15;;;;;;;21.64;56.51;99052.28;4971768;28;20139;-64
2022/12/06 11:53:17;;;;;;;73.22;37.80;;;;;;;21.58;56.55;99045.22;4966489;28;20051;-63
2022/12/06 11:56:30;;;;;;;79.82;42.25;;;;;;;21.43;57.08;99050.69;4968863;28;20054;-64
2022/12/06 11:59:33;;;;;;;89.10;45.92;;;;;;;21.33;57.20;99054.28;4966811;28;20138;-64
2022/12/06 12:02:30;;;;;;;101.93;46.65;;;;;;;21.22;57.44;99048.00;4625208;28;10000476;-60
2022/12/06 12:05:22;;;;;;;98.10;47.53;;;;;;;21.05;58.38;99047.50;4984927;28;20109;-62
2022/12/06 12:08:15;;;;;;;86.10;44.05;;;;;;;20.99;58.32;99051.31;4976625;28;20561;-61
2022/12/06 12:11:12;;;;;;;84.75;42.45;;;;;;;20.85;58.85;99049.16;4966012;28;20066;-61
2022/12/06 12:14:12;;;;;;;98.18;44.90;;;;;;;20.81;59.01;99049.94;4986781;28;20065;-63
2022/12/06 12:17:06;;;;;;;113.15;46.42;;;;;;;20.71;59.22;99057.06;4968094;28;20078;-61
2022/12/06 12:19:57;;;;;;;112.78;47.22;;;;;;;20.62;59.03;99060.59;4980488;28;20055;-64
2022/12/06 12:22:48;;;;;;;107.88;46.85;;;;;;;20.45;59.33;99058.91;4964685;28;20050;-66
2022/12/06 12:25:33;;;;;;;130.98;54.15;;;;;;;20.54;59.80;99067.38;4975569;28;20050;-66
2022/12/06 12:28:32;;;;;;;137.55;52.90;;;;;;;20.45;59.32;99058.91;4940532;28;20572;-64
2022/12/06 12:31:20;;;;;;;136.30;54.80;;;;;;;20.40;60.30;99066.25;4962071;28;20170;-61
2022/12/06 12:34:31;;;;;;;113.18;50.55;;;;;;;20.32;60.35;99075.78;4967087;28;20070;-61
2022/12/06 12:37:19;;;;;;;;;;;;;;;20.32;60.30;99075.78;4962620;28;20050;-60
2022/12/06 12:40:08;;;;;;;116.40;47.60;;;;;;;20.13;61.05;99075.47;4959709;28;19926;-61
2022/12/06 12:42:58;;;;;;;108.75;49.20;;;;;;;20.05;61.06;99076.78;4974432;28;20054;-64
2022/12/06 12:46:27;;;;;;;110.25;48.92;;;;;;;20.07;61.17;99077.34;4974070;28;20058;-65
2022/12/06 12:49:25;;;;;;;122.40;47.88;;;;;;;19.93;62.05;99081.66;4966498;28;20109;-63
2022/12/06 12:52:45;;;;;;;114.40;48.85;;;;;;;19.81;62.50;99081.88;4941535;28;20050;-64
2022/12/06 12:55:30;;;;;;;121.80;47.60;;;;;;;19.72;62.86;99084.28;4971202;28;20042;-66
2022/12/06 12:58:19;;;;;;;115.28;46.78;;;;;;;19.74;62.62;99093.03;4974976;28;20074;-66
2022/12/06 13:01:24;;;;;;;115.38;49.15;;;;;;;19.77;62.82;99099.03;4974212;28;20141;-65
2022/12/06 13:04:24;;;;;;;109.90;50.13;;;;;;;19.69;62.94;99095.69;4973952;28;20142;-66
2022/12/06 13:07:24;;;;;;;104.50;51.80;;;;;;;19.64;62.78;99103.84;4975704;28;20145;-65
2022/12/06 13:10:26;;;;;;;121.70;50.20;;;;;;;19.67;62.93;99102.47;4976986;28;20500;-65
2022/12/06 13:13:24;;;;;;;114.32;53.03;;;;;;;19.53;62.85;99107.59;4973892;28;20354;-65
2022/12/06 13:16:19;;;;;;;109.05;50.92;;;;;;;19.45;63.28;99106.19;4969766;28;20138;-65
2022/12/06 13:19:02;;;;;;;101.88;50.60;;;;;;;19.54;62.72;99107.28;4969937;28;20045;-66
2022/12/06 13:21:52;;;;;;;115.85;53.65;;;;;;;19.45;63.09;99122.50;4967365;28;20051;-66
2022/12/06 13:24:37;;;;;;;111.65;51.22;;;;;;;19.41;62.99;99120.56;4967621;28;20051;-65
2022/12/06 13:27:36;;;;;;;97.05;48.65;;;;;;;19.41;63.11;99128.72;4948059;28;20519;-67
2022/12/06 13:30:29;;;;;;;104.80;49.60;;;;;;;19.42;63.00;99131.19;4967912;28;20062;-65